sensor_id;sensor_type;location;lat;lon;timestamp;P1;durP1;ratioP1;P2;durP2;ratioP2
17251;SDS011;8742;51.716;8.790;2023-06-01T00:01:54;4.93;;;3.00;;
17251;SDS011;8742;51.716;8.790;2023-06-01T00:04:20;6.57;;;3.10;;
17251;SDS011;8742;51.716;8.790;2023-06-01T00:06:47;5.87;;;3.07;;
17251;SDS011;8742;51.716;8.790;2023-06-01T00:09:14;4.93;;;3.03;;
17251;SDS011;8742;51.716;8.790;2023-06-01T00:11:43;7.27;;;3.20;;
17251;SDS011;8742;51.716;8.790;2023-06-01T00:14:10;7.53;;;3.47;;
17251;SDS011;8742;51.716;8.790;2023-06-01T00:16:36;7.40;;;3.23;;
17251;SDS011;8742;51.716;8.790;2023-06-01T00:19:03;7.80;;;3.37;;
17251;SDS011;8742;51.716;8.790;2023-06-01T00:21:32;9.33;;;3.67;;
17251;SDS011;8742;51.716;8.790;2023-06-01T00:24:00;7.27;;;3.40;;
17251;SDS011;8742;51.716;8.790;2023-06-01T00:26:27;8.67;;;3.60;;
17251;SDS011;8742;51.716;8.790;2023-06-01T00:28:58;7.50;;;3.40;;
17251;SDS011;8742;51.716;8.790;2023-06-01T00:31:25;8.70;;;3.80;;
17251;SDS011;8742;51.716;8.790;2023-06-01T00:33:53;5.00;;;3.30;;
17251;SDS011;8742;51.716;8.790;2023-06-01T00:36:19;7.60;;;3.63;;
17251;SDS011;8742;51.716;8.790;2023-06-01T00:38:46;9.63;;;3.50;;
17251;SDS011;8742;51.716;8.790;2023-06-01T00:41:13;6.20;;;3.50;;
17251;SDS011;8742;51.716;8.790;2023-06-01T00:43:40;6.80;;;3.50;;
17251;SDS011;8742;51.716;8.790;2023-06-01T00:46:08;6.60;;;3.50;;
17251;SDS011;8742;51.716;8.790;2023-06-01T00:48:36;6.40;;;3.50;;
17251;SDS011;8742;51.716;8.790;2023-06-01T00:51:03;7.40;;;3.40;;
17251;SDS011;8742;51.716;8.790;2023-06-01T00:53:30;4.10;;;3.00;;
17251;SDS011;8742;51.716;8.790;2023-06-01T00:55:57;11.80;;;3.37;;
17251;SDS011;8742;51.716;8.790;2023-06-01T00:58:24;8.03;;;3.73;;
17251;SDS011;8742;51.716;8.790;2023-06-01T01:00:51;5.40;;;3.50;;
17251;SDS011;8742;51.716;8.790;2023-06-01T01:03:20;9.27;;;3.70;;
17251;SDS011;8742;51.716;8.790;2023-06-01T01:05:51;9.73;;;3.60;;
17251;SDS011;8742;51.716;8.790;2023-06-01T01:08:27;7.90;;;3.70;;
17251;SDS011;8742;51.716;8.790;2023-06-01T01:10:59;5.87;;;3.40;;
17251;SDS011;8742;51.716;8.790;2023-06-01T01:13:34;6.50;;;3.50;;
17251;SDS011;8742;51.716;8.790;2023-06-01T01:16:07;6.63;;;3.10;;
17251;SDS011;8742;51.716;8.790;2023-06-01T01:18:42;6.53;;;3.60;;
17251;SDS011;8742;51.716;8.790;2023-06-01T01:21:12;8.40;;;3.60;;
17251;SDS011;8742;51.716;8.790;2023-06-01T01:23:55;8.07;;;3.97;;
17251;SDS011;8742;51.716;8.790;2023-06-01T01:26:46;7.50;;;4.00;;
17251;SDS011;8742;51.716;8.790;2023-06-01T01:29:23;12.70;;;4.57;;
17251;SDS011;8742;51.716;8.790;2023-06-01T01:31:52;10.27;;;4.93;;
17251;SDS011;8742;51.716;8.790;2023-06-01T01:34:20;10.70;;;5.10;;
17251;SDS011;8742;51.716;8.790;2023-06-01T01:36:51;12.03;;;4.80;;
17251;SDS011;8742;51.716;8.790;2023-06-01T01:39:18;15.00;;;6.00;;
17251;SDS011;8742;51.716;8.790;2023-06-01T01:41:45;12.17;;;5.53;;
17251;SDS011;8742;51.716;8.790;2023-06-01T01:44:12;9.97;;;5.73;;
17251;SDS011;8742;51.716;8.790;2023-06-01T01:46:44;13.20;;;5.60;;
17251;SDS011;8742;51.716;8.790;2023-06-01T01:49:20;16.47;;;7.63;;
17251;SDS011;8742;51.716;8.790;2023-06-01T01:51:54;15.87;;;7.43;;
17251;SDS011;8742;51.716;8.790;2023-06-01T01:54:25;17.70;;;8.23;;
17251;SDS011;8742;51.716;8.790;2023-06-01T01:56:55;15.77;;;7.30;;
17251;SDS011;8742;51.716;8.790;2023-06-01T01:59:24;13.60;;;8.03;;
17251;SDS011;8742;51.716;8.790;2023-06-01T02:01:53;15.80;;;8.63;;
17251;SDS011;8742;51.716;8.790;2023-06-01T02:04:21;18.43;;;9.10;;
17251;SDS011;8742;51.716;8.790;2023-06-01T02:06:48;18.60;;;9.20;;
17251;SDS011;8742;51.716;8.790;2023-06-01T02:09:15;15.50;;;8.97;;
17251;SDS011;8742;51.716;8.790;2023-06-01T02:11:42;20.63;;;9.17;;
17251;SDS011;8742;51.716;8.790;2023-06-01T02:14:10;19.63;;;9.50;;
17251;SDS011;8742;51.716;8.790;2023-06-01T02:16:37;15.57;;;9.07;;
17251;SDS011;8742;51.716;8.790;2023-06-01T02:19:05;21.00;;;9.87;;
17251;SDS011;8742;51.716;8.790;2023-06-01T02:21:36;21.60;;;10.03;;
17251;SDS011;8742;51.716;8.790;2023-06-01T02:24:03;22.10;;;10.00;;
17251;SDS011;8742;51.716;8.790;2023-06-01T02:26:32;19.70;;;10.33;;
17251;SDS011;8742;51.716;8.790;2023-06-01T02:28:59;22.13;;;10.10;;
17251;SDS011;8742;51.716;8.790;2023-06-01T02:31:30;23.03;;;10.27;;
17251;SDS011;8742;51.716;8.790;2023-06-01T02:33:57;20.30;;;10.70;;
17251;SDS011;8742;51.716;8.790;2023-06-01T02:36:25;21.27;;;10.43;;
17251;SDS011;8742;51.716;8.790;2023-06-01T02:38:53;22.40;;;10.73;;
17251;SDS011;8742;51.716;8.790;2023-06-01T02:41:20;26.07;;;11.70;;
17251;SDS011;8742;51.716;8.790;2023-06-01T02:43:47;24.30;;;11.40;;
17251;SDS011;8742;51.716;8.790;2023-06-01T02:46:15;24.87;;;11.83;;
17251;SDS011;8742;51.716;8.790;2023-06-01T02:48:42;24.07;;;11.37;;
17251;SDS011;8742;51.716;8.790;2023-06-01T02:51:09;22.87;;;11.53;;
17251;SDS011;8742;51.716;8.790;2023-06-01T02:53:37;28.77;;;12.83;;
17251;SDS011;8742;51.716;8.790;2023-06-01T02:56:05;26.17;;;12.27;;
17251;SDS011;8742;51.716;8.790;2023-06-01T02:58:32;24.27;;;12.63;;
17251;SDS011;8742;51.716;8.790;2023-06-01T03:00:59;25.60;;;11.70;;
17251;SDS011;8742;51.716;8.790;2023-06-01T03:03:26;18.80;;;11.37;;
17251;SDS011;8742;51.716;8.790;2023-06-01T03:05:53;25.83;;;11.47;;
17251;SDS011;8742;51.716;8.790;2023-06-01T03:08:21;22.23;;;11.83;;
17251;SDS011;8742;51.716;8.790;2023-06-01T03:10:51;18.47;;;9.77;;
17251;SDS011;8742;51.716;8.790;2023-06-01T03:13:18;23.17;;;11.37;;
17251;SDS011;8742;51.716;8.790;2023-06-01T03:15:44;19.77;;;10.97;;
17251;SDS011;8742;51.716;8.790;2023-06-01T03:18:11;25.27;;;10.40;;
17251;SDS011;8742;51.716;8.790;2023-06-01T03:20:39;25.13;;;11.17;;
17251;SDS011;8742;51.716;8.790;2023-06-01T03:23:05;19.43;;;10.80;;
17251;SDS011;8742;51.716;8.790;2023-06-01T03:25:32;25.77;;;9.97;;
17251;SDS011;8742;51.716;8.790;2023-06-01T03:28:01;18.50;;;9.43;;
17251;SDS011;8742;51.716;8.790;2023-06-01T03:30:27;19.17;;;9.23;;
17251;SDS011;8742;51.716;8.790;2023-06-01T03:32:56;24.20;;;9.13;;
17251;SDS011;8742;51.716;8.790;2023-06-01T03:35:22;16.63;;;9.27;;
17251;SDS011;8742;51.716;8.790;2023-06-01T03:37:49;15.10;;;8.20;;
17251;SDS011;8742;51.716;8.790;2023-06-01T03:40:16;18.93;;;9.70;;
17251;SDS011;8742;51.716;8.790;2023-06-01T03:42:44;17.90;;;8.57;;
17251;SDS011;8742;51.716;8.790;2023-06-01T03:45:13;14.40;;;8.20;;
17251;SDS011;8742;51.716;8.790;2023-06-01T03:47:40;16.07;;;8.13;;
17251;SDS011;8742;51.716;8.790;2023-06-01T03:50:08;15.63;;;8.40;;
17251;SDS011;8742;51.716;8.790;2023-06-01T03:52:36;14.67;;;8.00;;
17251;SDS011;8742;51.716;8.790;2023-06-01T03:55:04;15.97;;;8.17;;
17251;SDS011;8742;51.716;8.790;2023-06-01T03:57:33;16.53;;;7.87;;
17251;SDS011;8742;51.716;8.790;2023-06-01T04:00:01;17.70;;;7.77;;
17251;SDS011;8742;51.716;8.790;2023-06-01T04:02:29;15.07;;;7.80;;
17251;SDS011;8742;51.716;8.790;2023-06-01T04:04:56;16.80;;;8.03;;
17251;SDS011;8742;51.716;8.790;2023-06-01T04:07:25;17.40;;;8.80;;
17251;SDS011;8742;51.716;8.790;2023-06-01T04:09:52;21.07;;;8.53;;
17251;SDS011;8742;51.716;8.790;2023-06-01T04:12:19;21.13;;;8.17;;
17251;SDS011;8742;51.716;8.790;2023-06-01T04:14:46;14.90;;;7.80;;
17251;SDS011;8742;51.716;8.790;2023-06-01T04:17:13;13.50;;;7.77;;
17251;SDS011;8742;51.716;8.790;2023-06-01T04:19:41;17.73;;;7.80;;
17251;SDS011;8742;51.716;8.790;2023-06-01T04:22:07;14.73;;;7.83;;
17251;SDS011;8742;51.716;8.790;2023-06-01T04:24:34;17.53;;;8.20;;
17251;SDS011;8742;51.716;8.790;2023-06-01T04:27:01;16.37;;;8.10;;
17251;SDS011;8742;51.716;8.790;2023-06-01T04:29:29;17.23;;;7.50;;
17251;SDS011;8742;51.716;8.790;2023-06-01T04:31:57;14.57;;;6.60;;
17251;SDS011;8742;51.716;8.790;2023-06-01T04:34:24;20.30;;;8.00;;
17251;SDS011;8742;51.716;8.790;2023-06-01T04:36:52;16.33;;;7.63;;
17251;SDS011;8742;51.716;8.790;2023-06-01T04:39:19;14.93;;;7.63;;
17251;SDS011;8742;51.716;8.790;2023-06-01T04:41:46;19.20;;;8.17;;
17251;SDS011;8742;51.716;8.790;2023-06-01T04:44:13;15.77;;;7.27;;
17251;SDS011;8742;51.716;8.790;2023-06-01T04:46:41;14.43;;;7.60;;
17251;SDS011;8742;51.716;8.790;2023-06-01T04:49:09;20.67;;;7.53;;
17251;SDS011;8742;51.716;8.790;2023-06-01T04:51:37;12.53;;;7.20;;
17251;SDS011;8742;51.716;8.790;2023-06-01T04:54:06;16.20;;;7.10;;
17251;SDS011;8742;51.716;8.790;2023-06-01T04:56:37;17.83;;;7.53;;
17251;SDS011;8742;51.716;8.790;2023-06-01T04:59:03;14.53;;;7.30;;
17251;SDS011;8742;51.716;8.790;2023-06-01T05:01:31;17.67;;;7.37;;
17251;SDS011;8742;51.716;8.790;2023-06-01T05:03:57;14.77;;;7.00;;
17251;SDS011;8742;51.716;8.790;2023-06-01T05:06:25;16.20;;;7.50;;
17251;SDS011;8742;51.716;8.790;2023-06-01T05:08:52;15.30;;;7.57;;
17251;SDS011;8742;51.716;8.790;2023-06-01T05:11:20;13.17;;;7.07;;
17251;SDS011;8742;51.716;8.790;2023-06-01T05:13:47;16.20;;;7.30;;
17251;SDS011;8742;51.716;8.790;2023-06-01T05:16:16;12.30;;;7.23;;
17251;SDS011;8742;51.716;8.790;2023-06-01T05:18:42;17.17;;;8.07;;
17251;SDS011;8742;51.716;8.790;2023-06-01T05:21:10;17.57;;;7.67;;
17251;SDS011;8742;51.716;8.790;2023-06-01T05:23:36;14.17;;;7.67;;
17251;SDS011;8742;51.716;8.790;2023-06-01T05:26:03;15.33;;;7.27;;
17251;SDS011;8742;51.716;8.790;2023-06-01T05:28:32;16.57;;;7.20;;
17251;SDS011;8742;51.716;8.790;2023-06-01T05:31:00;16.70;;;7.70;;
17251;SDS011;8742;51.716;8.790;2023-06-01T05:33:28;20.77;;;7.33;;
17251;SDS011;8742;51.716;8.790;2023-06-01T05:35:55;12.07;;;7.30;;
17251;SDS011;8742;51.716;8.790;2023-06-01T05:38:22;18.00;;;7.57;;
17251;SDS011;8742;51.716;8.790;2023-06-01T05:40:49;12.07;;;7.40;;
17251;SDS011;8742;51.716;8.790;2023-06-01T05:43:16;16.67;;;7.33;;
17251;SDS011;8742;51.716;8.790;2023-06-01T05:45:44;16.33;;;7.53;;
17251;SDS011;8742;51.716;8.790;2023-06-01T05:48:11;19.87;;;6.83;;
17251;SDS011;8742;51.716;8.790;2023-06-01T05:50:40;12.67;;;7.10;;
17251;SDS011;8742;51.716;8.790;2023-06-01T05:53:07;13.30;;;7.03;;
17251;SDS011;8742;51.716;8.790;2023-06-01T05:55:33;17.30;;;7.83;;
17251;SDS011;8742;51.716;8.790;2023-06-01T05:58:00;13.87;;;7.33;;
17251;SDS011;8742;51.716;8.790;2023-06-01T06:00:28;14.97;;;7.50;;
17251;SDS011;8742;51.716;8.790;2023-06-01T06:02:56;17.57;;;8.10;;
17251;SDS011;8742;51.716;8.790;2023-06-01T06:05:23;18.30;;;8.43;;
17251;SDS011;8742;51.716;8.790;2023-06-01T06:07:50;13.07;;;7.50;;
17251;SDS011;8742;51.716;8.790;2023-06-01T06:10:17;23.33;;;8.10;;
17251;SDS011;8742;51.716;8.790;2023-06-01T06:12:43;16.83;;;8.17;;
17251;SDS011;8742;51.716;8.790;2023-06-01T06:15:10;14.07;;;7.17;;
17251;SDS011;8742;51.716;8.790;2023-06-01T06:17:37;18.33;;;8.33;;
17251;SDS011;8742;51.716;8.790;2023-06-01T06:20:06;18.37;;;8.87;;
17251;SDS011;8742;51.716;8.790;2023-06-01T06:22:33;20.83;;;9.00;;
17251;SDS011;8742;51.716;8.790;2023-06-01T06:25:01;19.47;;;8.03;;
17251;SDS011;8742;51.716;8.790;2023-06-01T06:27:28;17.17;;;8.87;;
17251;SDS011;8742;51.716;8.790;2023-06-01T06:29:54;21.90;;;8.87;;
17251;SDS011;8742;51.716;8.790;2023-06-01T06:32:21;18.23;;;7.93;;
17251;SDS011;8742;51.716;8.790;2023-06-01T06:34:48;22.40;;;8.80;;
17251;SDS011;8742;51.716;8.790;2023-06-01T06:37:16;16.73;;;8.23;;
17251;SDS011;8742;51.716;8.790;2023-06-01T06:39:43;15.80;;;8.43;;
17251;SDS011;8742;51.716;8.790;2023-06-01T06:42:10;15.17;;;7.80;;
17251;SDS011;8742;51.716;8.790;2023-06-01T06:44:37;15.80;;;8.03;;
17251;SDS011;8742;51.716;8.790;2023-06-01T06:47:04;19.57;;;7.80;;
17251;SDS011;8742;51.716;8.790;2023-06-01T06:49:31;16.43;;;7.90;;
17251;SDS011;8742;51.716;8.790;2023-06-01T06:51:58;18.10;;;8.17;;
17251;SDS011;8742;51.716;8.790;2023-06-01T06:54:26;18.40;;;8.17;;
17251;SDS011;8742;51.716;8.790;2023-06-01T06:56:53;14.93;;;7.30;;
17251;SDS011;8742;51.716;8.790;2023-06-01T06:59:20;17.07;;;8.10;;
17251;SDS011;8742;51.716;8.790;2023-06-01T07:01:47;17.43;;;8.03;;
17251;SDS011;8742;51.716;8.790;2023-06-01T07:04:13;16.73;;;9.03;;
17251;SDS011;8742;51.716;8.790;2023-06-01T07:06:40;17.03;;;8.13;;
17251;SDS011;8742;51.716;8.790;2023-06-01T07:09:08;13.97;;;8.50;;
17251;SDS011;8742;51.716;8.790;2023-06-01T07:11:36;18.47;;;8.23;;
17251;SDS011;8742;51.716;8.790;2023-06-01T07:14:03;23.77;;;8.67;;
17251;SDS011;8742;51.716;8.790;2023-06-01T07:16:29;16.57;;;8.67;;
17251;SDS011;8742;51.716;8.790;2023-06-01T07:18:56;13.60;;;8.03;;
17251;SDS011;8742;51.716;8.790;2023-06-01T07:21:23;19.27;;;7.73;;
17251;SDS011;8742;51.716;8.790;2023-06-01T07:23:50;18.60;;;8.53;;
17251;SDS011;8742;51.716;8.790;2023-06-01T07:26:17;16.50;;;8.70;;
17251;SDS011;8742;51.716;8.790;2023-06-01T07:28:45;20.93;;;8.63;;
17251;SDS011;8742;51.716;8.790;2023-06-01T07:31:18;17.37;;;8.90;;
17251;SDS011;8742;51.716;8.790;2023-06-01T07:33:46;20.83;;;8.07;;
17251;SDS011;8742;51.716;8.790;2023-06-01T07:36:13;14.50;;;7.67;;
17251;SDS011;8742;51.716;8.790;2023-06-01T07:38:40;12.93;;;7.73;;
17251;SDS011;8742;51.716;8.790;2023-06-01T07:41:08;20.93;;;8.63;;
17251;SDS011;8742;51.716;8.790;2023-06-01T07:43:35;15.20;;;7.47;;
17251;SDS011;8742;51.716;8.790;2023-06-01T07:46:04;17.73;;;8.13;;
17251;SDS011;8742;51.716;8.790;2023-06-01T07:48:31;13.20;;;7.47;;
17251;SDS011;8742;51.716;8.790;2023-06-01T07:51:01;20.73;;;8.63;;
17251;SDS011;8742;51.716;8.790;2023-06-01T07:53:28;16.07;;;7.57;;
17251;SDS011;8742;51.716;8.790;2023-06-01T07:55:54;22.50;;;7.77;;
17251;SDS011;8742;51.716;8.790;2023-06-01T07:58:21;16.37;;;7.73;;
17251;SDS011;8742;51.716;8.790;2023-06-01T08:00:48;17.23;;;8.50;;
17251;SDS011;8742;51.716;8.790;2023-06-01T08:03:16;17.00;;;8.50;;
17251;SDS011;8742;51.716;8.790;2023-06-01T08:05:45;15.17;;;8.03;;
17251;SDS011;8742;51.716;8.790;2023-06-01T08:08:12;19.47;;;8.30;;
17251;SDS011;8742;51.716;8.790;2023-06-01T08:10:40;16.70;;;8.20;;
17251;SDS011;8742;51.716;8.790;2023-06-01T08:13:06;14.23;;;8.23;;
17251;SDS011;8742;51.716;8.790;2023-06-01T08:15:33;17.43;;;8.90;;
17251;SDS011;8742;51.716;8.790;2023-06-01T08:18:02;21.00;;;8.63;;
17251;SDS011;8742;51.716;8.790;2023-06-01T08:20:30;17.27;;;8.23;;
17251;SDS011;8742;51.716;8.790;2023-06-01T08:22:58;17.80;;;9.23;;
17251;SDS011;8742;51.716;8.790;2023-06-01T08:25:25;16.23;;;9.13;;
17251;SDS011;8742;51.716;8.790;2023-06-01T08:27:52;16.93;;;8.73;;
17251;SDS011;8742;51.716;8.790;2023-06-01T08:30:19;19.63;;;8.80;;
17251;SDS011;8742;51.716;8.790;2023-06-01T08:32:46;15.07;;;9.00;;
17251;SDS011;8742;51.716;8.790;2023-06-01T08:35:13;15.80;;;8.37;;
17251;SDS011;8742;51.716;8.790;2023-06-01T08:37:42;18.53;;;8.67;;
17251;SDS011;8742;51.716;8.790;2023-06-01T08:40:09;13.77;;;8.13;;
17251;SDS011;8742;51.716;8.790;2023-06-01T08:42:39;18.83;;;9.13;;
17251;SDS011;8742;51.716;8.790;2023-06-01T08:45:13;16.23;;;8.30;;
17251;SDS011;8742;51.716;8.790;2023-06-01T08:47:40;21.83;;;8.60;;
17251;SDS011;8742;51.716;8.790;2023-06-01T08:50:08;17.00;;;9.40;;
17251;SDS011;8742;51.716;8.790;2023-06-01T08:52:36;21.13;;;9.83;;
17251;SDS011;8742;51.716;8.790;2023-06-01T08:55:07;16.63;;;8.87;;
17251;SDS011;8742;51.716;8.790;2023-06-01T08:57:34;12.93;;;8.27;;
17251;SDS011;8742;51.716;8.790;2023-06-01T09:00:01;21.47;;;8.57;;
17251;SDS011;8742;51.716;8.790;2023-06-01T09:02:29;18.17;;;9.23;;
17251;SDS011;8742;51.716;8.790;2023-06-01T09:04:56;17.30;;;9.17;;
17251;SDS011;8742;51.716;8.790;2023-06-01T09:07:24;21.70;;;9.47;;
17251;SDS011;8742;51.716;8.790;2023-06-01T09:09:52;18.67;;;9.30;;
17251;SDS011;8742;51.716;8.790;2023-06-01T09:12:22;23.73;;;10.03;;
17251;SDS011;8742;51.716;8.790;2023-06-01T09:14:51;19.43;;;9.80;;
17251;SDS011;8742;51.716;8.790;2023-06-01T09:17:35;18.43;;;10.77;;
17251;SDS011;8742;51.716;8.790;2023-06-01T09:20:03;17.10;;;9.77;;
17251;SDS011;8742;51.716;8.790;2023-06-01T09:22:41;21.03;;;10.70;;
17251;SDS011;8742;51.716;8.790;2023-06-01T09:25:09;25.00;;;10.67;;
17251;SDS011;8742;51.716;8.790;2023-06-01T09:27:48;20.13;;;10.27;;
17251;SDS011;8742;51.716;8.790;2023-06-01T09:30:16;23.37;;;11.77;;
17251;SDS011;8742;51.716;8.790;2023-06-01T09:32:44;21.07;;;10.03;;
17251;SDS011;8742;51.716;8.790;2023-06-01T09:35:15;25.03;;;11.10;;
17251;SDS011;8742;51.716;8.790;2023-06-01T09:37:53;19.63;;;11.27;;
17251;SDS011;8742;51.716;8.790;2023-06-01T09:40:21;25.23;;;10.90;;
17251;SDS011;8742;51.716;8.790;2023-06-01T09:42:49;21.47;;;10.60;;
17251;SDS011;8742;51.716;8.790;2023-06-01T09:45:18;17.03;;;10.70;;
17251;SDS011;8742;51.716;8.790;2023-06-01T09:47:46;21.33;;;10.47;;
17251;SDS011;8742;51.716;8.790;2023-06-01T09:52:58;21.50;;;10.70;;
17251;SDS011;8742;51.716;8.790;2023-06-01T09:55:25;28.63;;;12.13;;
17251;SDS011;8742;51.716;8.790;2023-06-01T09:57:53;25.30;;;11.57;;
17251;SDS011;8742;51.716;8.790;2023-06-01T10:00:46;20.47;;;11.50;;
17251;SDS011;8742;51.716;8.790;2023-06-01T10:03:13;21.63;;;12.20;;
17251;SDS011;8742;51.716;8.790;2023-06-01T10:05:41;21.67;;;11.67;;
17251;SDS011;8742;51.716;8.790;2023-06-01T10:08:09;17.10;;;10.90;;
17251;SDS011;8742;51.716;8.790;2023-06-01T10:10:37;20.57;;;11.20;;
17251;SDS011;8742;51.716;8.790;2023-06-01T10:13:05;21.43;;;12.87;;
17251;SDS011;8742;51.716;8.790;2023-06-01T10:15:33;21.57;;;11.03;;
17251;SDS011;8742;51.716;8.790;2023-06-01T10:18:01;23.00;;;11.47;;
17251;SDS011;8742;51.716;8.790;2023-06-01T10:20:31;21.07;;;11.00;;
17251;SDS011;8742;51.716;8.790;2023-06-01T10:23:00;30.97;;;11.73;;
17251;SDS011;8742;51.716;8.790;2023-06-01T10:25:28;22.13;;;11.47;;
17251;SDS011;8742;51.716;8.790;2023-06-01T10:28:00;25.20;;;11.37;;
17251;SDS011;8742;51.716;8.790;2023-06-01T10:30:29;22.70;;;11.33;;
17251;SDS011;8742;51.716;8.790;2023-06-01T10:32:57;26.03;;;10.97;;
17251;SDS011;8742;51.716;8.790;2023-06-01T10:38:30;20.87;;;10.70;;
17251;SDS011;8742;51.716;8.790;2023-06-01T10:43:54;17.70;;;9.50;;
17251;SDS011;8742;51.716;8.790;2023-06-01T10:46:34;21.00;;;10.23;;
17251;SDS011;8742;51.716;8.790;2023-06-01T10:49:03;18.53;;;9.23;;
17251;SDS011;8742;51.716;8.790;2023-06-01T10:51:31;18.60;;;10.33;;
17251;SDS011;8742;51.716;8.790;2023-06-01T11:02:52;20.67;;;9.50;;
17251;SDS011;8742;51.716;8.790;2023-06-01T11:05:41;18.33;;;9.53;;
17251;SDS011;8742;51.716;8.790;2023-06-01T11:11:16;23.33;;;9.70;;
17251;SDS011;8742;51.716;8.790;2023-06-01T11:13:45;17.23;;;9.30;;
17251;SDS011;8742;51.716;8.790;2023-06-01T11:16:36;18.07;;;9.67;;
17251;SDS011;8742;51.716;8.790;2023-06-01T11:19:03;17.27;;;10.40;;
17251;SDS011;8742;51.716;8.790;2023-06-01T11:21:34;20.47;;;10.90;;
17251;SDS011;8742;51.716;8.790;2023-06-01T11:24:06;17.00;;;10.40;;
17251;SDS011;8742;51.716;8.790;2023-06-01T11:26:36;21.03;;;10.03;;
17251;SDS011;8742;51.716;8.790;2023-06-01T11:29:10;17.63;;;9.30;;
17251;SDS011;8742;51.716;8.790;2023-06-01T11:31:40;15.23;;;9.67;;
17251;SDS011;8742;51.716;8.790;2023-06-01T11:34:08;18.57;;;10.47;;
17251;SDS011;8742;51.716;8.790;2023-06-01T11:36:38;18.23;;;9.77;;
17251;SDS011;8742;51.716;8.790;2023-06-01T11:39:15;21.50;;;10.30;;
17251;SDS011;8742;51.716;8.790;2023-06-01T11:41:45;18.30;;;9.43;;
17251;SDS011;8742;51.716;8.790;2023-06-01T11:44:12;17.20;;;9.90;;
17251;SDS011;8742;51.716;8.790;2023-06-01T11:46:49;17.13;;;10.67;;
17251;SDS011;8742;51.716;8.790;2023-06-01T11:49:16;18.93;;;9.30;;
17251;SDS011;8742;51.716;8.790;2023-06-01T11:51:44;18.97;;;9.57;;
17251;SDS011;8742;51.716;8.790;2023-06-01T11:54:11;15.73;;;9.33;;
17251;SDS011;8742;51.716;8.790;2023-06-01T11:56:38;17.10;;;9.50;;
17251;SDS011;8742;51.716;8.790;2023-06-01T11:59:06;18.80;;;8.67;;
17251;SDS011;8742;51.716;8.790;2023-06-01T12:01:34;20.27;;;10.37;;
17251;SDS011;8742;51.716;8.790;2023-06-01T12:04:03;21.07;;;10.00;;
17251;SDS011;8742;51.716;8.790;2023-06-01T12:06:32;16.53;;;8.50;;
17251;SDS011;8742;51.716;8.790;2023-06-01T12:09:02;19.67;;;9.50;;
17251;SDS011;8742;51.716;8.790;2023-06-01T12:11:31;16.37;;;8.70;;
17251;SDS011;8742;51.716;8.790;2023-06-01T12:13:59;14.67;;;8.70;;
17251;SDS011;8742;51.716;8.790;2023-06-01T12:19:18;16.13;;;8.63;;
17251;SDS011;8742;51.716;8.790;2023-06-01T12:21:46;14.53;;;7.80;;
17251;SDS011;8742;51.716;8.790;2023-06-01T12:24:17;16.87;;;8.10;;
17251;SDS011;8742;51.716;8.790;2023-06-01T12:26:44;16.93;;;8.00;;
17251;SDS011;8742;51.716;8.790;2023-06-01T12:29:11;13.43;;;7.77;;
17251;SDS011;8742;51.716;8.790;2023-06-01T12:31:38;13.07;;;7.13;;
17251;SDS011;8742;51.716;8.790;2023-06-01T12:34:14;13.23;;;7.47;;
17251;SDS011;8742;51.716;8.790;2023-06-01T12:36:42;15.73;;;6.77;;
17251;SDS011;8742;51.716;8.790;2023-06-01T12:39:09;13.60;;;7.47;;
17251;SDS011;8742;51.716;8.790;2023-06-01T12:41:37;14.23;;;6.83;;
17251;SDS011;8742;51.716;8.790;2023-06-01T12:44:17;14.23;;;6.53;;
17251;SDS011;8742;51.716;8.790;2023-06-01T12:46:45;11.73;;;6.50;;
17251;SDS011;8742;51.716;8.790;2023-06-01T12:49:13;15.07;;;6.53;;
17251;SDS011;8742;51.716;8.790;2023-06-01T12:51:43;17.20;;;7.30;;
17251;SDS011;8742;51.716;8.790;2023-06-01T12:54:10;11.80;;;6.93;;
17251;SDS011;8742;51.716;8.790;2023-06-01T12:56:38;19.90;;;7.03;;
17251;SDS011;8742;51.716;8.790;2023-06-01T12:59:05;13.87;;;7.40;;
17251;SDS011;8742;51.716;8.790;2023-06-01T13:01:33;16.50;;;7.57;;
17251;SDS011;8742;51.716;8.790;2023-06-01T13:04:00;12.90;;;7.33;;
17251;SDS011;8742;51.716;8.790;2023-06-01T13:06:28;17.33;;;7.30;;
17251;SDS011;8742;51.716;8.790;2023-06-01T13:08:55;14.43;;;7.37;;
17251;SDS011;8742;51.716;8.790;2023-06-01T13:11:22;10.70;;;6.60;;
17251;SDS011;8742;51.716;8.790;2023-06-01T13:13:50;23.13;;;6.47;;
17251;SDS011;8742;51.716;8.790;2023-06-01T13:16:18;11.17;;;6.40;;
17251;SDS011;8742;51.716;8.790;2023-06-01T13:18:45;11.60;;;6.30;;
17251;SDS011;8742;51.716;8.790;2023-06-01T13:21:15;6.63;;;5.60;;
17251;SDS011;8742;51.716;8.790;2023-06-01T13:23:42;10.97;;;6.30;;
17251;SDS011;8742;51.716;8.790;2023-06-01T13:26:10;10.27;;;5.80;;
17251;SDS011;8742;51.716;8.790;2023-06-01T13:28:39;13.67;;;7.17;;
17251;SDS011;8742;51.716;8.790;2023-06-01T13:31:07;13.27;;;6.70;;
17251;SDS011;8742;51.716;8.790;2023-06-01T13:33:34;12.13;;;6.33;;
17251;SDS011;8742;51.716;8.790;2023-06-01T13:36:01;10.93;;;5.57;;
17251;SDS011;8742;51.716;8.790;2023-06-01T13:38:28;10.70;;;5.63;;
17251;SDS011;8742;51.716;8.790;2023-06-01T13:40:56;9.23;;;5.67;;
17251;SDS011;8742;51.716;8.790;2023-06-01T13:43:23;9.57;;;5.37;;
17251;SDS011;8742;51.716;8.790;2023-06-01T13:45:50;7.17;;;5.10;;
17251;SDS011;8742;51.716;8.790;2023-06-01T13:48:19;14.40;;;5.60;;
17251;SDS011;8742;51.716;8.790;2023-06-01T13:50:45;8.00;;;5.30;;
17251;SDS011;8742;51.716;8.790;2023-06-01T13:53:12;12.77;;;6.40;;
17251;SDS011;8742;51.716;8.790;2023-06-01T13:55:39;13.43;;;5.73;;
17251;SDS011;8742;51.716;8.790;2023-06-01T13:58:06;11.80;;;5.87;;
17251;SDS011;8742;51.716;8.790;2023-06-01T14:00:33;10.00;;;5.60;;
17251;SDS011;8742;51.716;8.790;2023-06-01T14:03:00;12.00;;;6.00;;
17251;SDS011;8742;51.716;8.790;2023-06-01T14:05:29;8.60;;;5.43;;
17251;SDS011;8742;51.716;8.790;2023-06-01T14:07:56;9.87;;;5.90;;
17251;SDS011;8742;51.716;8.790;2023-06-01T14:10:22;8.60;;;5.73;;
17251;SDS011;8742;51.716;8.790;2023-06-01T14:12:49;15.23;;;6.10;;
17251;SDS011;8742;51.716;8.790;2023-06-01T14:15:16;9.37;;;6.07;;
17251;SDS011;8742;51.716;8.790;2023-06-01T14:17:43;11.30;;;6.60;;
17251;SDS011;8742;51.716;8.790;2023-06-01T14:20:10;10.30;;;6.20;;
17251;SDS011;8742;51.716;8.790;2023-06-01T14:22:38;10.57;;;5.90;;
17251;SDS011;8742;51.716;8.790;2023-06-01T14:25:05;10.80;;;6.10;;
17251;SDS011;8742;51.716;8.790;2023-06-01T14:27:33;12.17;;;5.90;;
17251;SDS011;8742;51.716;8.790;2023-06-01T14:30:01;8.13;;;5.60;;
17251;SDS011;8742;51.716;8.790;2023-06-01T14:32:29;9.23;;;4.90;;
17251;SDS011;8742;51.716;8.790;2023-06-01T14:34:56;8.73;;;4.73;;
17251;SDS011;8742;51.716;8.790;2023-06-01T14:37:23;7.70;;;5.03;;
17251;SDS011;8742;51.716;8.790;2023-06-01T14:39:51;5.97;;;4.73;;
17251;SDS011;8742;51.716;8.790;2023-06-01T14:42:19;10.57;;;4.37;;
17251;SDS011;8742;51.716;8.790;2023-06-01T14:44:46;7.27;;;4.73;;
17251;SDS011;8742;51.716;8.790;2023-06-01T14:47:13;6.60;;;4.70;;
17251;SDS011;8742;51.716;8.790;2023-06-01T14:49:40;8.03;;;4.90;;
17251;SDS011;8742;51.716;8.790;2023-06-01T14:52:07;8.63;;;4.80;;
17251;SDS011;8742;51.716;8.790;2023-06-01T14:54:34;8.00;;;4.60;;
17251;SDS011;8742;51.716;8.790;2023-06-01T14:57:02;7.17;;;4.80;;
17251;SDS011;8742;51.716;8.790;2023-06-01T14:59:30;8.53;;;4.87;;
17251;SDS011;8742;51.716;8.790;2023-06-01T15:01:58;6.57;;;4.50;;
17251;SDS011;8742;51.716;8.790;2023-06-01T15:04:26;7.83;;;4.80;;
17251;SDS011;8742;51.716;8.790;2023-06-01T15:06:53;7.13;;;5.10;;
17251;SDS011;8742;51.716;8.790;2023-06-01T15:09:20;7.57;;;4.97;;
17251;SDS011;8742;51.716;8.790;2023-06-01T15:11:47;7.83;;;4.73;;
17251;SDS011;8742;51.716;8.790;2023-06-01T15:14:15;8.90;;;4.47;;
17251;SDS011;8742;51.716;8.790;2023-06-01T15:16:42;11.17;;;5.40;;
17251;SDS011;8742;51.716;8.790;2023-06-01T15:19:09;7.77;;;5.60;;